createdAt,value
2022-08-05T00:02:23.443Z,25.60
2022-08-05T00:04:55.627Z,25.70
2022-08-05T00:08:00.546Z,25.70
2022-08-05T00:10:12.078Z,25.60
2022-08-05T00:12:55.962Z,25.50
2022-08-05T00:15:57.551Z,25.50
2022-08-05T00:18:21.435Z,25.40
2022-08-05T00:20:50.749Z,25.20
2022-08-05T00:23:44.617Z,25.20
2022-08-05T00:26:07.648Z,25.20
2022-08-05T00:28:36.037Z,25.10
2022-08-05T00:31:07.701Z,25.00
2022-08-05T00:34:55.634Z,25.00
2022-08-05T00:37:11.459Z,25.10
2022-08-05T00:39:13.820Z,25.10
2022-08-05T00:41:51.563Z,25.00
2022-08-05T00:44:20.888Z,24.90
2022-08-05T00:46:54.290Z,24.70
2022-08-05T00:49:32.764Z,24.70
2022-08-05T00:52:12.515Z,24.70
2022-08-05T00:54:41.419Z,24.70
2022-08-05T00:57:11.434Z,24.70
2022-08-05T00:59:44.374Z,24.70
2022-08-05T01:02:14.877Z,24.70
2022-08-05T01:04:44.677Z,24.70
2022-08-05T01:07:18.447Z,24.70
2022-08-05T01:09:46.650Z,24.80
2022-08-05T01:12:24.796Z,24.80
2022-08-05T01:15:04.103Z,24.90
2022-08-05T01:17:40.136Z,24.80
2022-08-05T01:20:14.532Z,24.80
2022-08-05T01:22:57.508Z,24.70
2022-08-05T01:25:40.866Z,24.80
2022-08-05T01:28:24.071Z,24.90
2022-08-05T01:30:55.348Z,24.90
2022-08-05T01:33:26.260Z,24.90
2022-08-05T01:35:57.621Z,24.90
2022-08-05T01:38:29.196Z,24.90
2022-08-05T01:40:59.775Z,24.90
2022-08-05T01:43:31.490Z,24.90
2022-08-05T01:46:07.096Z,24.90
2022-08-05T01:48:49.605Z,24.90
2022-08-05T01:51:18.947Z,24.90
2022-08-05T01:53:57.643Z,24.80
2022-08-05T01:58:10.809Z,24.70
2022-08-05T01:59:21.143Z,24.60
2022-08-05T02:01:50.201Z,24.50
2022-08-05T02:04:19.676Z,24.50
2022-08-05T02:06:47.740Z,24.50
2022-08-05T02:09:16.441Z,24.50
2022-08-05T02:11:52.373Z,24.40
2022-08-05T02:14:28.603Z,24.50
2022-08-05T02:17:04.398Z,24.50
2022-08-05T02:19:35.584Z,24.50
2022-08-05T02:22:26.583Z,24.60
2022-08-05T02:24:57.589Z,24.60
2022-08-05T02:27:29.887Z,24.60
2022-08-05T02:30:19.646Z,24.60
2022-08-05T02:32:49.146Z,24.50
2022-08-05T02:35:28.231Z,24.50
2022-08-05T02:38:02.568Z,24.50
2022-08-05T02:40:31.270Z,24.60
2022-08-05T02:43:00.321Z,24.60
2022-08-05T02:45:52.316Z,24.70
2022-08-05T02:48:18.430Z,24.70
2022-08-05T02:50:48.516Z,24.70
2022-08-05T02:53:19.635Z,24.60
2022-08-05T02:55:54.984Z,24.60
2022-08-05T02:58:28.806Z,24.60
2022-08-05T03:01:02.085Z,24.50
2022-08-05T03:03:33.715Z,24.50
2022-08-05T03:06:56.161Z,24.50
2022-08-05T03:09:07.796Z,24.50
2022-08-05T03:11:54.309Z,24.50
2022-08-05T03:14:23.922Z,24.50
2022-08-05T03:16:55.656Z,24.40
2022-08-05T03:19:34.553Z,24.40
2022-08-05T03:22:04.877Z,24.40
2022-08-05T03:24:33.764Z,24.40
2022-08-05T03:27:03.138Z,24.40
2022-08-05T03:29:45.283Z,24.40
2022-08-05T03:32:30.702Z,24.50
2022-08-05T03:34:59.279Z,24.50
2022-08-05T03:37:28.852Z,24.40
2022-08-05T03:39:58.989Z,24.40
2022-08-05T03:42:32.426Z,24.30
2022-08-05T03:45:01.617Z,24.30
2022-08-05T03:47:35.606Z,24.20
2022-08-05T03:50:10.081Z,24.10
2022-08-05T03:55:00.387Z,24.10
2022-08-05T03:56:04.638Z,24.10
2022-08-05T03:58:29.349Z,24.10
2022-08-05T04:00:58.367Z,24.00
2022-08-05T04:03:29.883Z,24.00
2022-08-05T04:05:59.146Z,24.00
2022-08-05T04:08:35.120Z,23.90
2022-08-05T04:11:07.429Z,23.90
2022-08-05T04:13:49.676Z,23.90
2022-08-05T04:16:24.870Z,23.90
2022-08-05T04:19:01.615Z,23.80
2022-08-05T04:22:09.508Z,23.70
2022-08-05T04:24:19.601Z,23.70
2022-08-05T04:26:50.964Z,23.70
2022-08-05T04:29:19.796Z,23.60
2022-08-05T04:31:48.253Z,23.60
2022-08-05T04:34:32.541Z,23.50
2022-08-05T04:37:03.129Z,23.50
2022-08-05T04:39:32.198Z,23.50
2022-08-05T04:42:00.542Z,23.50
2022-08-05T04:44:30.753Z,23.50
2022-08-05T04:46:59.199Z,23.60
2022-08-05T04:49:38.377Z,23.60
2022-08-05T04:52:17.273Z,23.60
2022-08-05T04:54:46.990Z,23.60
2022-08-05T04:57:17.430Z,23.60
2022-08-05T04:59:45.423Z,23.60
2022-08-05T05:02:36.357Z,23.70
2022-08-05T05:05:16.657Z,23.70
2022-08-05T05:07:56.419Z,23.80
2022-08-05T05:10:29.725Z,23.80
2022-08-05T05:12:57.924Z,23.90
2022-08-05T05:15:57.395Z,23.90
2022-08-05T05:18:14.215Z,23.90
2022-08-05T05:20:46.079Z,24.00
2022-08-05T05:23:19.594Z,24.00
2022-08-05T05:25:48.110Z,24.00
2022-08-05T05:28:16.069Z,24.10
2022-08-05T05:30:44.102Z,24.10
2022-08-05T05:33:17.989Z,24.20
2022-08-05T05:35:52.906Z,24.20
2022-08-05T05:38:22.457Z,24.20
2022-08-05T05:40:55.739Z,24.30
2022-08-05T05:43:56.500Z,24.30
2022-08-05T05:46:15.788Z,24.40
2022-08-05T05:48:48.377Z,24.50
2022-08-05T05:51:22.098Z,24.60
2022-08-05T05:53:57.977Z,24.70
2022-08-05T05:56:32.826Z,24.90
2022-08-05T05:59:03.379Z,25.00
2022-08-05T06:01:37.463Z,25.00
2022-08-05T06:04:07.040Z,25.00
2022-08-05T06:06:37.017Z,25.10
2022-08-05T06:09:16.542Z,25.20
2022-08-05T06:11:59.437Z,25.30
2022-08-05T06:14:29.588Z,25.40
2022-08-05T06:16:58.008Z,25.50
2022-08-05T06:19:34.136Z,25.60
2022-08-05T06:22:06.337Z,25.80
2022-08-05T06:24:35.088Z,25.90
2022-08-05T06:27:03.865Z,25.90
2022-08-05T06:29:49.427Z,26.10
2022-08-05T06:32:25.825Z,26.10
2022-08-05T06:34:57.434Z,26.10
2022-08-05T06:37:55.645Z,26.20
2022-08-05T06:40:21.038Z,26.20
2022-08-05T06:42:51.983Z,26.40
2022-08-05T06:45:44.925Z,26.70
2022-08-05T06:48:36.385Z,26.80
2022-08-05T06:50:57.456Z,27.10
2022-08-05T06:53:27.755Z,27.20
2022-08-05T06:55:56.991Z,27.30
2022-08-05T06:58:35.389Z,27.40
2022-08-05T07:01:05.465Z,27.40
2022-08-05T07:03:33.882Z,27.50
2022-08-05T07:06:05.955Z,27.60
2022-08-05T07:08:47.458Z,27.70
2022-08-05T07:11:16.139Z,27.70
2022-08-05T07:14:01.282Z,27.80
2022-08-05T07:18:08.339Z,27.90
2022-08-05T07:22:28.716Z,28.20
2022-08-05T07:24:59.623Z,28.60
2022-08-05T07:27:58.853Z,29.10
2022-08-05T07:30:33.353Z,29.90
2022-08-05T07:33:08.848Z,31.10
2022-08-05T07:35:56.073Z,32.20
2022-08-05T07:38:34.078Z,32.80
2022-08-05T07:42:08.969Z,33.80
2022-08-05T07:43:57.131Z,35.00
2022-08-05T07:46:26.393Z,36.60
2022-08-05T07:49:03.126Z,37.80
2022-08-05T07:51:40.247Z,38.90
2022-08-05T07:54:11.457Z,39.90
2022-08-05T07:57:02.393Z,40.70
2022-08-05T07:59:38.705Z,40.50
2022-08-05T08:02:16.001Z,39.20
2022-08-05T08:04:46.049Z,36.80
2022-08-05T08:07:14.133Z,35.10
2022-08-05T08:09:43.178Z,33.50
2022-08-05T08:12:35.369Z,32.50
2022-08-05T08:15:02.667Z,31.50
2022-08-05T08:17:31.755Z,30.80
2022-08-05T08:20:22.498Z,30.60
2022-08-05T08:22:51.891Z,30.20
2022-08-05T08:25:35.879Z,29.80
2022-08-05T08:28:11.442Z,29.60
2022-08-05T08:30:47.803Z,30.30
2022-08-05T08:33:19.820Z,31.70
2022-08-05T08:35:52.375Z,32.50
2022-08-05T08:38:35.590Z,31.90
2022-08-05T08:41:06.338Z,31.40
2022-08-05T08:45:18.935Z,31.10
2022-08-05T08:46:25.074Z,31.70
2022-08-05T08:49:06.368Z,32.70
2022-08-05T08:52:03.820Z,33.40
2022-08-05T08:54:32.715Z,34.50
2022-08-05T08:57:01.078Z,35.10
2022-08-05T08:59:33.363Z,35.60
2022-08-05T09:02:01.957Z,36.20
2022-08-05T09:04:30.286Z,37.10
2022-08-05T09:06:59.043Z,37.80
2022-08-05T09:09:34.719Z,38.60
2022-08-05T09:12:20.158Z,39.60
2022-08-05T09:15:03.998Z,40.10
2022-08-05T09:17:42.488Z,41.20
2022-08-05T09:20:12.113Z,41.40
2022-08-05T09:23:05.254Z,41.70
2022-08-05T09:26:02.156Z,42.00
2022-08-05T09:28:31.580Z,42.60
2022-08-05T09:31:22.808Z,43.10
2022-08-05T09:33:54.760Z,43.70
2022-08-05T09:36:27.745Z,43.80
2022-08-05T09:39:02.435Z,44.00
2022-08-05T09:41:32.917Z,44.00
2022-08-05T09:44:06.400Z,44.20
2022-08-05T09:46:35.809Z,44.30
2022-08-05T09:49:19.434Z,44.60
2022-08-05T09:51:48.960Z,44.90
2022-08-05T09:54:28.846Z,45.20
2022-08-05T09:57:01.785Z,45.50
2022-08-05T09:59:35.195Z,45.80
2022-08-05T10:02:07.158Z,45.60
2022-08-05T10:04:36.107Z,45.80
2022-08-05T10:07:20.280Z,45.70
2022-08-05T10:10:14.325Z,45.30
2022-08-05T10:12:49.283Z,44.70
2022-08-05T10:15:25.938Z,44.50
2022-08-05T10:18:06.239Z,44.00
2022-08-05T10:20:35.792Z,43.50
2022-08-05T10:23:03.856Z,43.30
2022-08-05T10:25:37.085Z,43.20
2022-08-05T10:28:09.606Z,43.20
2022-08-05T10:32:54.504Z,43.30
2022-08-05T10:33:36.046Z,43.70
2022-08-05T10:36:05.168Z,44.00
2022-08-05T10:38:34.523Z,44.40
2022-08-05T10:41:05.326Z,44.60
2022-08-05T10:43:37.994Z,45.00
2022-08-05T10:46:07.708Z,45.00
2022-08-05T10:48:56.831Z,45.30
2022-08-05T10:51:29.003Z,45.20
2022-08-05T10:54:01.079Z,45.20
2022-08-05T10:56:45.114Z,44.40
2022-08-05T11:00:03.224Z,44.10
2022-08-05T11:02:08.741Z,43.60
2022-08-05T11:04:47.727Z,42.90
2022-08-05T11:07:18.528Z,42.30
2022-08-05T11:10:03.725Z,40.90
2022-08-05T11:12:54.235Z,40.50
2022-08-05T11:16:00.756Z,40.60
2022-08-05T11:18:34.498Z,40.90
2022-08-05T11:21:11.426Z,40.90
2022-08-05T11:24:04.418Z,40.80
2022-08-05T11:26:32.952Z,40.70
2022-08-05T11:29:06.644Z,40.20
2022-08-05T11:31:58.661Z,39.80
2022-08-05T11:34:39.475Z,39.40
2022-08-05T11:38:28.838Z,38.80
2022-08-05T11:40:02.803Z,38.30
2022-08-05T11:42:32.729Z,38.00
2022-08-05T11:45:23.305Z,37.90
2022-08-05T11:47:55.695Z,38.10
2022-08-05T11:50:25.132Z,38.80
2022-08-05T11:52:58.005Z,38.90
2022-08-05T11:55:31.782Z,39.00
2022-08-05T11:58:09.532Z,39.30
2022-08-05T12:00:41.381Z,39.70
2022-08-05T12:03:31.428Z,40.20
2022-08-05T12:06:01.289Z,40.40
2022-08-05T12:08:31.420Z,40.00
2022-08-05T12:11:05.553Z,39.80
2022-08-05T12:13:49.335Z,39.80
2022-08-05T12:16:25.459Z,39.90
2022-08-05T12:18:54.019Z,40.00
2022-08-05T12:21:23.931Z,40.20
2022-08-05T12:24:05.163Z,40.30
2022-08-05T12:26:35.581Z,40.20
2022-08-05T12:29:05.588Z,40.20
2022-08-05T12:31:45.929Z,40.40
2022-08-05T12:34:21.338Z,40.50
2022-08-05T12:36:53.282Z,40.40
2022-08-05T12:39:23.711Z,40.40
2022-08-05T12:41:58.829Z,40.40
2022-08-05T12:44:33.151Z,40.50
2022-08-05T12:47:02.661Z,40.90
2022-08-05T12:50:03.449Z,41.10
2022-08-05T12:52:35.304Z,41.60
2022-08-05T12:55:22.075Z,42.10
2022-08-05T12:58:50.286Z,42.20
2022-08-05T13:02:00.102Z,42.30
2022-08-05T13:03:32.617Z,42.70
2022-08-05T13:06:01.104Z,42.90
2022-08-05T13:08:30.195Z,42.80
2022-08-05T13:11:02.361Z,43.10
2022-08-05T13:14:06.783Z,43.20
2022-08-05T13:16:20.756Z,43.60
2022-08-05T13:18:55.162Z,43.80
2022-08-05T13:21:28.247Z,43.80
2022-08-05T13:24:06.303Z,44.00
2022-08-05T13:26:38.422Z,44.10
2022-08-05T13:29:08.974Z,44.10
2022-08-05T13:32:04.112Z,44.10
2022-08-05T13:34:26.345Z,44.20
2022-08-05T13:36:54.708Z,43.70
2022-08-05T13:40:12.771Z,43.80
2022-08-05T13:42:14.639Z,43.60
2022-08-05T13:44:45.463Z,43.70
2022-08-05T13:47:35.466Z,43.50
2022-08-05T13:50:04.492Z,43.20
2022-08-05T13:52:35.259Z,42.90
2022-08-05T13:55:07.722Z,42.50
2022-08-05T13:57:50.966Z,42.00
2022-08-05T14:00:27.331Z,41.60
2022-08-05T14:02:56.548Z,41.10
2022-08-05T14:05:48.407Z,40.60
2022-08-05T14:08:21.421Z,40.10
2022-08-05T14:11:03.218Z,39.60
2022-08-05T14:13:48.188Z,39.40
2022-08-05T14:16:16.635Z,39.10
2022-08-05T14:18:45.144Z,38.90
2022-08-05T14:22:08.312Z,38.70
2022-08-05T14:24:01.122Z,38.50
2022-08-05T14:26:36.854Z,38.20
2022-08-05T14:29:16.762Z,37.90
2022-08-05T14:32:02.802Z,37.60
2022-08-05T14:34:35.521Z,37.50
2022-08-05T14:37:04.214Z,37.30
2022-08-05T14:39:50.308Z,37.10
2022-08-05T14:42:21.588Z,37.00
2022-08-05T14:44:51.490Z,37.00
2022-08-05T14:47:58.370Z,36.80
2022-08-05T14:50:17.759Z,36.90
2022-08-05T14:52:57.622Z,36.70
2022-08-05T14:55:38.530Z,36.50
2022-08-05T14:58:11.803Z,36.40
2022-08-05T15:00:58.300Z,36.20
2022-08-05T15:03:33.738Z,36.00
2022-08-05T15:06:15.345Z,36.00
2022-08-05T15:08:59.777Z,35.80
2022-08-05T15:11:52.509Z,35.80
2022-08-05T15:14:35.585Z,35.60
2022-08-05T15:17:44.660Z,35.20
2022-08-05T15:19:58.134Z,35.20
2022-08-05T15:22:27.358Z,35.00
2022-08-05T15:24:56.389Z,34.80
2022-08-05T15:27:25.813Z,34.70
2022-08-05T15:29:54.243Z,34.50
2022-08-05T15:32:27.143Z,34.30
2022-08-05T15:34:56.962Z,34.20
2022-08-05T15:38:34.917Z,34.10
2022-08-05T15:40:58.793Z,33.90
2022-08-05T15:43:11.211Z,33.90
2022-08-05T15:45:47.966Z,33.70
2022-08-05T15:48:30.766Z,33.70
2022-08-05T15:51:01.559Z,33.60
2022-08-05T15:53:38.460Z,33.50
2022-08-05T15:56:19.659Z,33.40
2022-08-05T15:58:48.601Z,33.30
2022-08-05T16:01:18.118Z,33.20
2022-08-05T16:03:50.317Z,33.00
2022-08-05T16:06:20.386Z,32.90
2022-08-05T16:08:50.946Z,32.70
2022-08-05T16:11:21.124Z,32.60
2022-08-05T16:14:07.382Z,32.40
2022-08-05T16:16:37.056Z,32.30
2022-08-05T16:19:06.700Z,32.30
2022-08-05T16:21:59.370Z,32.30
2022-08-05T16:24:39.997Z,32.20
2022-08-05T16:27:15.925Z,32.20
2022-08-05T16:29:50.429Z,32.20
2022-08-05T16:32:28.412Z,32.30
2022-08-05T16:34:59.946Z,32.10
2022-08-05T16:38:11.943Z,32.00
2022-08-05T16:40:26.747Z,31.90
2022-08-05T16:42:57.564Z,31.80
2022-08-05T16:46:03.986Z,31.80
2022-08-05T16:48:26.012Z,31.70
2022-08-05T16:51:08.777Z,31.60
2022-08-05T16:54:05.090Z,31.50
2022-08-05T16:56:26.793Z,31.40
2022-08-05T16:58:55.335Z,31.40
2022-08-05T17:01:24.356Z,31.40
2022-08-05T17:03:52.918Z,31.30
2022-08-05T17:06:24.785Z,31.20
2022-08-05T17:08:54.409Z,31.10
2022-08-05T17:11:23.817Z,31.10
2022-08-05T17:14:00.406Z,31.10
2022-08-05T17:16:36.568Z,31.00
2022-08-05T17:19:07.039Z,30.90
2022-08-05T17:21:37.483Z,30.60
2022-08-05T17:24:08.313Z,30.50
2022-08-05T17:26:48.526Z,30.30
2022-08-05T17:29:16.836Z,30.10
2022-08-05T17:31:57.390Z,30.10
2022-08-05T17:34:29.903Z,29.90
2022-08-05T17:37:01.461Z,29.70
2022-08-05T17:39:33.265Z,29.50
2022-08-05T17:42:17.295Z,29.40
2022-08-05T17:44:51.026Z,29.30
2022-08-05T17:47:22.275Z,29.20
2022-08-05T17:49:52.038Z,28.90
2022-08-05T17:52:33.121Z,28.80
2022-08-05T17:55:01.295Z,28.60
2022-08-05T17:57:31.377Z,28.40
2022-08-05T18:00:05.050Z,28.30
2022-08-05T18:02:34.210Z,28.10
2022-08-05T18:05:03.732Z,28.00
2022-08-05T18:07:41.139Z,27.90
2022-08-05T18:10:11.152Z,27.80
2022-08-05T18:12:39.656Z,27.60
2022-08-05T18:15:09.812Z,27.50
2022-08-05T18:18:00.830Z,27.40
2022-08-05T18:20:29.290Z,27.40
2022-08-05T18:23:09.567Z,27.40
2022-08-05T18:25:42.752Z,27.30
2022-08-05T18:28:16.544Z,27.20
2022-08-05T18:30:45.289Z,27.10
2022-08-05T18:33:13.488Z,27.10
2022-08-05T18:36:00.753Z,27.00
2022-08-05T18:38:31.810Z,27.00
2022-08-05T18:41:56.032Z,26.90
2022-08-05T18:43:49.009Z,26.90
2022-08-05T18:46:20.306Z,26.90
2022-08-05T18:48:52.042Z,26.90
2022-08-05T18:52:05.152Z,26.80
2022-08-05T18:54:31.176Z,26.80
2022-08-05T18:57:00.910Z,26.70
2022-08-05T18:59:43.409Z,26.70
2022-08-05T19:02:28.061Z,26.70
2022-08-05T19:06:12.348Z,26.50
2022-08-05T19:07:56.222Z,26.60
2022-08-05T19:10:28.403Z,26.60
2022-08-05T19:12:56.866Z,26.50
2022-08-05T19:15:57.183Z,26.50
2022-08-05T19:18:22.064Z,26.40
2022-08-05T19:20:52.125Z,26.20
2022-08-05T19:24:04.372Z,25.80
2022-08-05T19:26:11.838Z,25.70
2022-08-05T19:28:42.220Z,25.60
2022-08-05T19:31:13.377Z,25.50
2022-08-05T19:33:55.733Z,25.40
2022-08-05T19:36:25.237Z,25.20
2022-08-05T19:38:54.380Z,24.90
2022-08-05T19:41:58.013Z,24.60
2022-08-05T19:44:13.002Z,24.40
2022-08-05T19:46:43.782Z,24.30
2022-08-05T19:49:12.561Z,24.20
2022-08-05T19:52:06.061Z,24.10
2022-08-05T19:54:32.941Z,24.00
2022-08-05T19:57:06.439Z,23.80
2022-08-05T19:59:55.807Z,23.70
2022-08-05T20:02:27.102Z,23.50
2022-08-05T20:04:58.984Z,23.20
2022-08-05T20:07:46.428Z,23.00
2022-08-05T20:10:15.813Z,22.80
2022-08-05T20:12:46.042Z,22.70
2022-08-05T20:15:15.932Z,22.50
2022-08-05T20:18:10.304Z,22.50
2022-08-05T20:20:55.084Z,22.40
2022-08-05T20:23:23.640Z,22.30
2022-08-05T20:26:07.326Z,22.00
2022-08-05T20:28:37.410Z,21.80
2022-08-05T20:31:05.468Z,21.70
2022-08-05T20:33:34.285Z,21.40
2022-08-05T20:36:03.098Z,21.10
2022-08-05T20:38:35.308Z,20.80
2022-08-05T20:41:04.460Z,20.50
2022-08-05T20:43:58.846Z,20.20
2022-08-05T20:46:25.653Z,20.10
2022-08-05T20:48:53.739Z,19.90
2022-08-05T20:51:22.827Z,19.80
2022-08-05T20:53:56.433Z,19.60
2022-08-05T20:56:29.852Z,19.60
2022-08-05T20:59:14.356Z,19.50
2022-08-05T21:01:47.743Z,19.40
2022-08-05T21:04:18.584Z,19.30
2022-08-05T21:06:46.578Z,19.20
2022-08-05T21:09:15.138Z,19.00
2022-08-05T21:12:06.909Z,18.90
2022-08-05T21:14:34.800Z,18.80
2022-08-05T21:17:04.914Z,18.90
2022-08-05T21:19:47.528Z,19.00
2022-08-05T21:22:21.969Z,19.10
2022-08-05T21:24:52.569Z,19.20
2022-08-05T21:27:24.961Z,19.30
2022-08-05T21:29:55.518Z,19.40
2022-08-05T21:32:24.610Z,19.50
2022-08-05T21:35:08.713Z,19.50
2022-08-05T21:37:53.027Z,19.60
2022-08-05T21:40:22.073Z,19.60
2022-08-05T21:42:51.957Z,19.70
2022-08-05T21:45:24.979Z,19.70
2022-08-05T21:48:08.033Z,19.70
2022-08-05T21:50:37.309Z,19.80
2022-08-05T21:53:16.718Z,19.90
2022-08-05T21:56:05.598Z,20.10
2022-08-05T21:58:34.407Z,20.20
2022-08-05T22:01:06.361Z,20.20
2022-08-05T22:03:52.792Z,20.20
2022-08-05T22:06:35.476Z,20.30
2022-08-05T22:09:13.721Z,20.30
2022-08-05T22:11:46.718Z,20.20
2022-08-05T22:14:34.265Z,20.20
2022-08-05T22:17:07.222Z,20.20
2022-08-05T22:20:00.302Z,20.20
2022-08-05T22:22:27.658Z,20.20
2022-08-05T22:25:21.071Z,20.30
2022-08-05T22:28:08.707Z,20.30
2022-08-05T22:30:55.628Z,20.30
2022-08-05T22:33:57.194Z,20.30
2022-08-05T22:36:15.216Z,20.30
2022-08-05T22:38:48.524Z,20.30
2022-08-05T22:41:26.353Z,20.20
2022-08-05T22:44:05.606Z,20.10
2022-08-05T22:46:33.624Z,20.00
2022-08-05T22:49:23.541Z,20.00
2022-08-05T22:52:07.236Z,19.90
2022-08-05T22:54:40.795Z,19.90
2022-08-05T22:57:16.910Z,19.90
2022-08-05T22:59:53.862Z,19.90
2022-08-05T23:02:29.595Z,19.90
2022-08-05T23:05:01.870Z,20.00
2022-08-05T23:07:43.773Z,20.00
2022-08-05T23:10:20.131Z,20.10
2022-08-05T23:12:51.639Z,20.00
2022-08-05T23:15:26.962Z,20.20
2022-08-05T23:18:01.209Z,20.30
2022-08-05T23:20:32.802Z,20.30
2022-08-05T23:23:05.927Z,20.40
2022-08-05T23:25:51.504Z,20.40
2022-08-05T23:28:23.878Z,20.40
2022-08-05T23:30:55.744Z,20.40
2022-08-05T23:34:05.254Z,20.40
2022-08-05T23:36:19.837Z,20.50
2022-08-05T23:38:47.827Z,20.50
2022-08-05T23:41:17.753Z,20.30
2022-08-05T23:44:05.366Z,20.50
2022-08-05T23:46:33.958Z,20.50
2022-08-05T23:49:16.946Z,20.50
2022-08-05T23:52:05.702Z,20.50
2022-08-05T23:54:36.714Z,20.50
2022-08-05T23:57:06.598Z,20.50
